createdAt,value
2022-10-15T00:02:33.434Z,2.60
2022-10-15T00:05:41.651Z,2.54
2022-10-15T00:08:46.724Z,2.47
2022-10-15T00:11:50.667Z,2.45
2022-10-15T00:14:53.568Z,2.51
2022-10-15T00:17:57.553Z,3.14
2022-10-15T00:21:01.689Z,4.20
2022-10-15T00:24:05.830Z,5.22
2022-10-15T00:27:08.717Z,6.07
2022-10-15T00:30:12.941Z,6.91
2022-10-15T00:33:17.620Z,7.62
2022-10-15T00:36:26.223Z,8.34
2022-10-15T00:39:30.752Z,8.69
2022-10-15T00:42:34.087Z,9.09
2022-10-15T00:45:38.110Z,9.00
2022-10-15T00:48:41.728Z,8.84
2022-10-15T00:51:50.449Z,9.33
2022-10-15T00:55:00.605Z,8.40
2022-10-15T01:01:22.254Z,7.28
2022-10-15T01:04:25.775Z,7.98
2022-10-15T01:07:29.894Z,8.33
2022-10-15T01:10:57.161Z,8.83
2022-10-15T01:14:44.160Z,9.36
2022-10-15T01:18:08.892Z,9.68
2022-10-15T01:21:22.783Z,10.50
2022-10-15T01:24:47.123Z,10.32
2022-10-15T01:28:05.767Z,10.03
2022-10-15T01:31:33.352Z,9.72
2022-10-15T01:34:54.712Z,8.82
2022-10-15T01:38:06.143Z,8.43
2022-10-15T01:41:21.335Z,8.72
2022-10-15T01:44:34.937Z,8.89
2022-10-15T01:48:05.111Z,8.99
2022-10-15T01:51:11.520Z,8.84
2022-10-15T01:54:18.955Z,8.77
2022-10-15T01:57:26.388Z,9.04
2022-10-15T02:00:30.687Z,8.31
2022-10-15T02:03:49.990Z,9.71
2022-10-15T02:07:21.053Z,9.91
2022-10-15T02:10:29.839Z,8.90
2022-10-15T02:14:01.174Z,8.22
2022-10-15T02:17:10.847Z,7.71
2022-10-15T02:20:25.487Z,7.72
2022-10-15T02:23:39.490Z,7.99
2022-10-15T02:26:44.706Z,9.14
2022-10-15T02:29:53.283Z,9.56
2022-10-15T02:33:00.256Z,8.76
2022-10-15T02:36:04.521Z,8.18
2022-10-15T02:39:18.924Z,8.26
2022-10-15T02:42:23.896Z,7.89
2022-10-15T02:45:28.191Z,8.38
2022-10-15T02:48:32.006Z,8.19
2022-10-15T02:51:36.995Z,8.10
2022-10-15T02:54:40.723Z,7.88
2022-10-15T02:57:44.903Z,7.61
2022-10-15T03:00:49.602Z,7.59
2022-10-15T03:03:54.624Z,7.69
2022-10-15T03:06:58.704Z,7.77
2022-10-15T03:10:03.366Z,7.61
2022-10-15T03:13:08.196Z,8.01
2022-10-15T03:16:20.905Z,8.73
2022-10-15T03:19:24.533Z,8.88
2022-10-15T03:22:30.595Z,8.46
2022-10-15T03:25:34.071Z,8.40
2022-10-15T03:28:40.628Z,8.17
2022-10-15T03:31:43.665Z,7.89
2022-10-15T03:34:47.434Z,7.79
2022-10-15T03:37:53.262Z,7.94
2022-10-15T03:40:57.278Z,8.18
2022-10-15T03:44:12.326Z,8.08
2022-10-15T03:47:20.704Z,7.84
2022-10-15T03:50:25.960Z,7.68
2022-10-15T03:53:29.531Z,7.52
2022-10-15T03:56:33.439Z,7.50
2022-10-15T03:59:54.216Z,7.35
2022-10-15T04:02:59.504Z,7.42
2022-10-15T04:06:04.455Z,7.82
2022-10-15T04:09:09.231Z,8.18
2022-10-15T04:12:12.821Z,8.18
2022-10-15T04:15:16.539Z,8.14
2022-10-15T04:18:32.054Z,8.17
2022-10-15T04:21:35.500Z,8.14
2022-10-15T04:24:41.134Z,8.15
2022-10-15T04:27:44.142Z,8.18
2022-10-15T04:30:52.060Z,8.16
2022-10-15T04:33:57.509Z,8.16
2022-10-15T04:37:02.682Z,8.26
2022-10-15T04:40:06.525Z,8.21
2022-10-15T04:43:10.342Z,8.14
2022-10-15T04:46:14.988Z,8.31
2022-10-15T04:49:18.987Z,8.37
2022-10-15T04:52:23.497Z,8.23
2022-10-15T04:55:33.232Z,8.02
2022-10-15T04:58:38.359Z,8.14
2022-10-15T05:01:42.440Z,8.26
2022-10-15T05:04:46.317Z,8.48
2022-10-15T05:07:50.328Z,8.53
2022-10-15T05:10:54.294Z,8.37
2022-10-15T05:13:58.591Z,8.35
2022-10-15T05:17:02.852Z,8.21
2022-10-15T05:20:12.014Z,7.87
2022-10-15T05:23:16.013Z,7.80
2022-10-15T05:26:30.051Z,8.08
2022-10-15T05:29:34.206Z,8.36
2022-10-15T05:32:38.353Z,8.29
2022-10-15T05:35:46.523Z,8.52
2022-10-15T05:38:59.663Z,8.72
2022-10-15T05:42:02.731Z,8.58
2022-10-15T05:45:16.827Z,8.39
2022-10-15T05:48:19.727Z,8.37
2022-10-15T05:51:24.410Z,8.51
2022-10-15T05:54:30.898Z,8.67
2022-10-15T05:57:33.696Z,8.80
2022-10-15T06:00:40.531Z,9.22
2022-10-15T06:03:44.715Z,9.49
2022-10-15T06:06:48.351Z,9.23
2022-10-15T06:09:51.305Z,9.07
2022-10-15T06:12:54.773Z,8.65
2022-10-15T06:15:57.659Z,8.46
2022-10-15T06:19:01.310Z,8.47
2022-10-15T06:22:04.937Z,8.64
2022-10-15T06:25:09.094Z,8.64
2022-10-15T06:28:12.222Z,8.79
2022-10-15T06:31:18.278Z,8.94
2022-10-15T06:34:21.213Z,8.94
2022-10-15T06:37:25.271Z,8.81
2022-10-15T06:40:31.508Z,8.64
2022-10-15T06:43:36.178Z,8.55
2022-10-15T06:46:39.705Z,8.64
2022-10-15T06:49:43.218Z,8.65
2022-10-15T06:52:46.174Z,8.61
2022-10-15T06:55:49.782Z,8.67
2022-10-15T06:58:52.569Z,8.60
2022-10-15T07:01:56.115Z,8.60
2022-10-15T07:04:59.720Z,8.79
2022-10-15T07:08:03.372Z,8.82
2022-10-15T07:11:09.805Z,8.60
2022-10-15T07:14:13.623Z,8.40
2022-10-15T07:17:17.341Z,8.32
2022-10-15T07:20:23.582Z,8.41
2022-10-15T07:23:28.354Z,8.44
2022-10-15T07:26:32.231Z,8.39
2022-10-15T07:29:38.102Z,8.15
2022-10-15T07:32:44.440Z,7.96
2022-10-15T07:35:50.022Z,7.89
2022-10-15T07:38:54.243Z,7.74
2022-10-15T07:41:57.372Z,7.68
2022-10-15T07:45:01.429Z,7.54
2022-10-15T07:48:05.354Z,7.44
2022-10-15T07:51:09.420Z,7.50
2022-10-15T07:54:13.154Z,7.53
2022-10-15T07:57:18.401Z,7.67
2022-10-15T08:00:23.781Z,7.76
2022-10-15T08:03:28.036Z,7.93
2022-10-15T08:06:33.257Z,8.26
2022-10-15T08:09:36.907Z,8.34
2022-10-15T08:12:40.761Z,8.51
2022-10-15T08:15:44.605Z,8.31
2022-10-15T08:18:48.264Z,8.23
2022-10-15T08:21:52.132Z,8.05
2022-10-15T08:24:55.753Z,7.90
2022-10-15T08:28:00.663Z,7.81
2022-10-15T08:31:05.960Z,7.66
2022-10-15T08:34:10.544Z,7.51
2022-10-15T08:40:23.825Z,7.33
2022-10-15T08:43:48.423Z,7.19
2022-10-15T08:47:19.413Z,7.10
2022-10-15T08:50:42.931Z,7.02
2022-10-15T08:53:54.768Z,6.90
2022-10-15T08:57:18.367Z,6.84
2022-10-15T09:00:28.801Z,6.76
2022-10-15T09:03:50.088Z,6.64
2022-10-15T09:07:04.509Z,6.59
2022-10-15T09:10:28.131Z,6.68
2022-10-15T09:13:41.364Z,6.53
2022-10-15T09:16:49.214Z,6.52
2022-10-15T09:19:58.007Z,6.50
2022-10-15T09:23:01.912Z,6.41
2022-10-15T09:26:31.693Z,6.33
2022-10-15T09:29:44.589Z,6.30
2022-10-15T09:33:09.294Z,6.25
2022-10-15T09:36:30.947Z,6.27
2022-10-15T09:39:40.483Z,6.14
2022-10-15T09:42:45.484Z,6.06
2022-10-15T09:45:50.123Z,6.00
2022-10-15T09:49:04.597Z,5.97
2022-10-15T09:52:12.509Z,5.96
2022-10-15T09:55:31.996Z,5.98
2022-10-15T09:58:44.812Z,5.93
2022-10-15T10:02:03.088Z,5.96
2022-10-15T10:05:33.060Z,5.95
2022-10-15T10:08:42.292Z,5.91
2022-10-15T10:11:52.634Z,5.88
2022-10-15T10:15:19.623Z,5.88
2022-10-15T10:18:25.982Z,5.88
2022-10-15T10:21:35.833Z,5.86
2022-10-15T10:24:39.705Z,5.82
2022-10-15T10:27:46.504Z,5.81
2022-10-15T10:30:52.421Z,5.75
2022-10-15T10:33:56.617Z,5.73
2022-10-15T10:37:04.987Z,5.72
2022-10-15T10:40:27.920Z,5.70
2022-10-15T10:43:38.987Z,5.68
2022-10-15T10:46:42.559Z,5.69
2022-10-15T10:49:54.675Z,5.68
2022-10-15T10:53:00.586Z,5.63
2022-10-15T10:56:11.324Z,5.59
2022-10-15T10:59:20.755Z,5.58
2022-10-15T11:02:25.596Z,5.51
2022-10-15T11:05:33.780Z,5.51
2022-10-15T11:09:26.403Z,5.51
2022-10-15T11:12:40.885Z,5.51
2022-10-15T11:15:44.131Z,5.46
2022-10-15T11:19:43.940Z,5.47
2022-10-15T11:22:53.225Z,5.41
2022-10-15T11:26:26.585Z,5.37
2022-10-15T11:29:51.158Z,5.37
2022-10-15T11:33:23.702Z,5.34
2022-10-15T11:36:42.231Z,5.30
2022-10-15T11:40:14.412Z,5.26
2022-10-15T11:43:35.943Z,5.28
2022-10-15T11:46:44.226Z,5.22
2022-10-15T11:50:08.288Z,5.21
2022-10-15T11:53:38.213Z,5.20
2022-10-15T11:56:46.926Z,5.19
2022-10-15T11:59:59.298Z,5.14
2022-10-15T12:03:28.020Z,5.17
2022-10-15T12:06:37.787Z,5.21
2022-10-15T12:09:45.275Z,5.25
2022-10-15T12:13:11.437Z,5.16
2022-10-15T12:16:42.574Z,5.16
2022-10-15T12:19:54.834Z,5.11
2022-10-15T12:23:01.579Z,5.08
2022-10-15T12:26:25.193Z,4.99
2022-10-15T12:29:29.548Z,4.86
2022-10-15T12:32:40.552Z,4.89
2022-10-15T12:35:43.712Z,4.87
2022-10-15T12:39:40.303Z,4.86
2022-10-15T12:42:51.336Z,4.82
2022-10-15T12:45:59.217Z,4.73
2022-10-15T12:49:43.817Z,4.77
2022-10-15T12:52:50.659Z,4.69
2022-10-15T12:56:12.442Z,4.63
2022-10-15T12:59:34.036Z,4.62
2022-10-15T13:05:54.272Z,4.53
2022-10-15T13:09:13.185Z,4.45
2022-10-15T13:12:27.977Z,4.39
2022-10-15T13:15:33.723Z,4.36
2022-10-15T13:18:37.751Z,4.30
2022-10-15T13:21:58.600Z,4.23
2022-10-15T13:25:05.501Z,4.19
2022-10-15T13:28:48.831Z,4.18
2022-10-15T13:31:54.183Z,4.11
2022-10-15T13:34:58.124Z,4.07
2022-10-15T13:38:01.996Z,4.02
2022-10-15T13:41:05.032Z,3.99
2022-10-15T13:44:22.347Z,4.01
2022-10-15T13:47:37.668Z,4.03
2022-10-15T13:50:41.156Z,3.96
2022-10-15T13:53:44.863Z,3.89
2022-10-15T13:56:56.358Z,3.81
2022-10-15T13:59:59.673Z,3.82
2022-10-15T14:03:10.787Z,3.84
2022-10-15T14:06:37.142Z,3.82
2022-10-15T14:09:41.441Z,3.75
2022-10-15T14:12:44.749Z,3.70
2022-10-15T14:15:51.466Z,3.70
2022-10-15T14:19:07.594Z,3.68
2022-10-15T14:22:18.889Z,3.72
2022-10-15T14:25:26.062Z,3.72
2022-10-15T14:28:32.426Z,3.68
2022-10-15T14:31:42.031Z,3.66
2022-10-15T14:34:45.027Z,3.62
2022-10-15T14:37:49.049Z,3.62
2022-10-15T14:41:07.153Z,3.58
2022-10-15T14:44:14.237Z,3.57
2022-10-15T14:47:26.842Z,3.56
2022-10-15T14:50:33.464Z,3.56
2022-10-15T14:53:40.155Z,3.56
2022-10-15T14:56:43.165Z,3.55
2022-10-15T14:59:46.027Z,3.51
2022-10-15T15:02:49.811Z,3.52
2022-10-15T15:05:55.320Z,3.53
2022-10-15T15:08:58.320Z,3.53
2022-10-15T15:12:01.826Z,3.50
2022-10-15T15:15:13.386Z,3.48
2022-10-15T15:18:16.946Z,3.47
2022-10-15T15:21:24.101Z,3.43
2022-10-15T15:24:27.342Z,3.41
2022-10-15T15:27:37.635Z,3.40
2022-10-15T15:30:43.597Z,3.38
2022-10-15T15:33:46.981Z,3.34
2022-10-15T15:36:52.735Z,3.32
2022-10-15T15:39:56.801Z,3.30
2022-10-15T15:43:00.610Z,3.24
2022-10-15T15:46:04.183Z,3.25
2022-10-15T15:49:07.789Z,3.23
2022-10-15T15:52:19.714Z,3.21
2022-10-15T15:55:23.918Z,3.19
2022-10-15T15:58:27.181Z,3.17
2022-10-15T16:01:30.857Z,3.18
2022-10-15T16:04:35.086Z,3.18
2022-10-15T16:07:38.667Z,3.17
2022-10-15T16:10:41.593Z,3.15
2022-10-15T16:13:45.245Z,3.14
2022-10-15T16:16:48.797Z,3.09
2022-10-15T16:19:52.849Z,3.06
2022-10-15T16:22:56.544Z,3.02
2022-10-15T16:26:00.127Z,3.02
2022-10-15T16:29:04.080Z,2.98
2022-10-15T16:32:06.959Z,2.95
2022-10-15T16:35:10.634Z,2.96
2022-10-15T16:38:13.561Z,2.94
2022-10-15T16:41:20.171Z,2.92
2022-10-15T16:44:23.811Z,2.86
2022-10-15T16:47:27.383Z,2.87
2022-10-15T16:50:32.530Z,2.87
2022-10-15T16:53:38.240Z,2.91
2022-10-15T16:56:42.106Z,2.86
2022-10-15T16:59:45.425Z,2.81
2022-10-15T17:02:48.426Z,2.78
2022-10-15T17:05:58.100Z,2.77
2022-10-15T17:09:06.191Z,2.76
2022-10-15T17:12:10.195Z,2.69
2022-10-15T17:15:13.740Z,2.70
2022-10-15T17:18:17.029Z,2.64
2022-10-15T17:21:23.237Z,2.59
2022-10-15T17:24:26.627Z,2.57
2022-10-15T17:27:29.839Z,2.60
2022-10-15T17:30:37.396Z,2.61
2022-10-15T17:33:42.320Z,2.62
2022-10-15T17:36:49.049Z,2.61
2022-10-15T17:39:53.442Z,2.60
2022-10-15T17:42:57.461Z,2.52
2022-10-15T17:46:06.706Z,2.57
2022-10-15T17:49:11.805Z,2.60
2022-10-15T17:52:15.596Z,2.61
2022-10-15T17:55:18.491Z,2.59
2022-10-15T17:58:22.177Z,2.59
2022-10-15T18:01:39.233Z,2.52
2022-10-15T18:04:49.664Z,2.41
2022-10-15T18:07:53.650Z,2.36
2022-10-15T18:10:56.498Z,2.27
2022-10-15T18:14:00.050Z,2.24
2022-10-15T18:17:02.968Z,2.23
2022-10-15T18:20:06.318Z,2.23
2022-10-15T18:23:10.141Z,2.19
2022-10-15T18:26:19.540Z,2.12
2022-10-15T18:29:24.363Z,2.06
2022-10-15T18:32:27.800Z,2.06
2022-10-15T18:35:30.745Z,2.04
2022-10-15T18:38:34.829Z,1.99
2022-10-15T18:41:39.393Z,1.97
2022-10-15T18:44:42.823Z,1.96
2022-10-15T18:47:46.405Z,1.94
2022-10-15T18:50:50.057Z,1.88
2022-10-15T18:53:53.898Z,1.84
2022-10-15T18:56:56.779Z,1.81
2022-10-15T19:00:00.055Z,1.77
2022-10-15T19:03:03.258Z,1.71
2022-10-15T19:06:07.046Z,1.71
2022-10-15T19:09:13.043Z,1.70
2022-10-15T19:12:16.132Z,1.69
2022-10-15T19:15:19.738Z,1.72
2022-10-15T19:18:23.358Z,1.76
2022-10-15T19:21:27.238Z,1.73
2022-10-15T19:24:31.172Z,1.65
2022-10-15T19:27:35.416Z,1.62
2022-10-15T19:30:38.470Z,1.58
2022-10-15T19:33:44.411Z,1.54
2022-10-15T19:36:49.078Z,1.52
2022-10-15T19:39:52.461Z,1.46
2022-10-15T19:42:57.132Z,1.44
2022-10-15T19:46:04.413Z,1.39
2022-10-15T19:49:09.665Z,1.38
2022-10-15T19:52:13.575Z,1.35
2022-10-15T19:55:21.982Z,1.27
2022-10-15T19:58:26.752Z,1.22
2022-10-15T20:01:30.884Z,1.22
2022-10-15T20:04:34.506Z,1.18
2022-10-15T20:07:37.468Z,1.18
2022-10-15T20:10:43.064Z,1.12
2022-10-15T20:13:46.252Z,1.07
2022-10-15T20:16:49.838Z,1.03
2022-10-15T20:19:54.131Z,0.96
2022-10-15T20:22:58.052Z,0.91
2022-10-15T20:26:08.894Z,0.90
2022-10-15T20:29:12.126Z,0.87
2022-10-15T20:32:30.275Z,0.91
2022-10-15T20:35:38.069Z,0.87
2022-10-15T20:38:42.613Z,0.82
2022-10-15T20:41:45.676Z,0.82
2022-10-15T20:44:49.969Z,0.82
2022-10-15T20:47:54.228Z,0.81
2022-10-15T20:50:57.584Z,0.78
2022-10-15T20:54:01.426Z,0.77
2022-10-15T20:57:05.964Z,0.77
2022-10-15T21:00:09.695Z,0.72
2022-10-15T21:03:13.660Z,0.68
2022-10-15T21:06:17.328Z,0.65
2022-10-15T21:09:20.478Z,0.62
2022-10-15T21:12:23.478Z,0.62
2022-10-15T21:15:28.317Z,0.61
2022-10-15T21:18:32.541Z,0.62
2022-10-15T21:21:36.222Z,0.64
2022-10-15T21:24:39.945Z,0.64
2022-10-15T21:27:43.873Z,0.58
2022-10-15T21:30:47.417Z,0.51
2022-10-15T21:33:51.201Z,0.52
2022-10-15T21:36:55.825Z,0.53
2022-10-15T21:39:59.296Z,0.48
2022-10-15T21:43:02.190Z,0.44
2022-10-15T21:46:13.740Z,0.42
2022-10-15T21:49:16.594Z,0.38
2022-10-15T21:52:19.756Z,0.33
2022-10-15T21:55:25.962Z,0.32
2022-10-15T21:58:30.692Z,0.27
2022-10-15T22:01:36.676Z,0.25
2022-10-15T22:04:40.459Z,0.18
2022-10-15T22:07:43.276Z,0.13
2022-10-15T22:10:46.514Z,0.12
2022-10-15T22:13:52.515Z,0.09
2022-10-15T22:16:56.375Z,0.12
2022-10-15T22:19:59.196Z,0.09
2022-10-15T22:23:02.132Z,0.07
2022-10-15T22:26:05.088Z,0.04
2022-10-15T22:29:09.689Z,0.03
2022-10-15T22:32:13.290Z,-0.01
2022-10-15T22:35:16.359Z,-0.03
2022-10-15T22:38:19.907Z,-0.01
2022-10-15T22:41:23.694Z,0.00
2022-10-15T22:44:26.563Z,0.04
2022-10-15T22:47:30.424Z,0.01
2022-10-15T22:50:34.118Z,-0.08
2022-10-15T22:53:37.724Z,-0.11
2022-10-15T22:56:40.829Z,-0.13
2022-10-15T22:59:44.485Z,-0.17
2022-10-15T23:02:47.974Z,-0.15
2022-10-15T23:05:53.312Z,-0.09
2022-10-15T23:08:58.891Z,-0.02
2022-10-15T23:12:02.756Z,0.04
2022-10-15T23:15:07.208Z,0.10
2022-10-15T23:18:11.098Z,0.15
2022-10-15T23:21:20.003Z,0.19
2022-10-15T23:24:25.806Z,0.16
2022-10-15T23:27:29.750Z,0.17
2022-10-15T23:30:32.668Z,0.14
2022-10-15T23:33:36.399Z,0.13
2022-10-15T23:36:40.304Z,0.15
2022-10-15T23:39:43.889Z,0.21
2022-10-15T23:42:48.176Z,0.27
2022-10-15T23:45:51.156Z,0.26
2022-10-15T23:48:55.037Z,0.32
2022-10-15T23:51:58.196Z,0.31
2022-10-15T23:55:02.255Z,0.26
2022-10-15T23:58:05.107Z,0.30
